CheckWX is a tool to help pilots better visualize weather data.  It is not intended as a substitute for an official pre-flight weather briefing.

00:48:38 UTC

CWLY METAR
Lytton Airport
Lytton, Canada
Current

49 mins ago

CWLY 230000Z AUTO 20015G23KT 180V250 9SM CLR 13/04 A3021 RMK SLP235
Observed
Oct-23 @ 00:00 UTC
Wind
  • 200° at 15 KTS
  • Gusting to 23 KTS
Visibility
9 SM
Flight Rules
VFR
Cloud Levels
  • Clear skies
Temperature
13°C / 55°F
Dewpoint
C / 39°F
Humidity
55%
Altimeter
30.21" Hg
Pressure
1023.02 hPa
Previous

2 hours ago

CWLY 222300Z AUTO 20012G25KT 170V230 9SM CLR 15/04 A3018 RMK SLP225
Observed
Oct-22 @ 23:00 UTC
Wind
  • 200° at 12 KTS
  • Gusting to 25 KTS
Visibility
9 SM
Flight Rules
VFR
Cloud Levels
  • Clear skies
Temperature
15°C / 59°F
Dewpoint
C / 39°F
Humidity
48%
Altimeter
30.18" Hg
Pressure
1022.02 hPa
Previous

3 hours ago

CWLY 222200Z AUTO 21011G26KT 9SM CLR 16/04 A3016 RMK SLP215
Observed
Oct-22 @ 22:00 UTC
Wind
  • 210° at 11 KTS
  • Gusting to 26 KTS
Visibility
9 SM
Flight Rules
VFR
Cloud Levels
  • Clear skies
Temperature
16°C / 61°F
Dewpoint
C / 39°F
Humidity
45%
Altimeter
30.16" Hg
Pressure
1021.32 hPa